createdAt,value
2019-01-20T10:02:53.617Z,1013.84
2019-01-20T10:03:53.602Z,1013.82
2019-01-20T10:05:35.259Z,1013.82
2019-01-20T10:06:35.243Z,1013.87
2019-01-20T10:07:35.260Z,1013.88
2019-01-20T10:08:35.223Z,1013.90
2019-01-20T10:09:35.213Z,1013.83
2019-01-20T10:10:35.196Z,1013.89
2019-01-20T10:11:35.186Z,1013.85
2019-01-20T10:12:35.212Z,1013.83
2019-01-20T10:13:35.236Z,1013.84
2019-01-20T10:14:35.217Z,1013.84
2019-01-20T10:15:35.134Z,1013.82
2019-01-20T10:16:35.200Z,1013.86
2019-01-20T10:17:35.140Z,1013.80
2019-01-20T10:18:35.101Z,1013.84
2019-01-20T10:19:35.092Z,1013.73
2019-01-20T10:20:35.081Z,1013.85
2019-01-20T10:21:35.069Z,1013.78
2019-01-20T10:22:35.070Z,1013.85
2019-01-20T10:23:35.063Z,1013.76
2019-01-20T10:24:35.074Z,1013.78
2019-01-20T10:25:35.025Z,1013.77
2019-01-20T10:26:37.885Z,1013.81
2019-01-20T10:27:35.644Z,1013.78
2019-01-20T10:28:35.023Z,1013.82
2019-01-20T10:29:35.011Z,1013.86
2019-01-20T10:30:34.969Z,1013.86
2019-01-20T10:31:34.961Z,1013.90
2019-01-20T10:32:35.040Z,1013.87
2019-01-20T10:33:34.980Z,1013.79
2019-01-20T10:34:35.679Z,1013.76
2019-01-20T10:35:34.911Z,1013.80
2019-01-20T10:36:34.921Z,1013.80
2019-01-20T10:37:34.896Z,1013.79
2019-01-20T10:38:37.176Z,1013.78
2019-01-20T10:39:34.881Z,1013.78
2019-01-20T10:40:34.871Z,1013.81
2019-01-20T10:41:34.855Z,1013.76
2019-01-20T10:42:34.844Z,1013.81
2019-01-20T10:43:34.914Z,1013.69
2019-01-20T10:44:34.826Z,1013.77
2019-01-20T10:46:44.666Z,1013.69
2019-01-20T10:47:44.606Z,1013.76
2019-01-20T10:49:26.279Z,1013.71
2019-01-20T10:50:26.289Z,1013.75
2019-01-20T10:52:08.492Z,1013.79
2019-01-20T10:53:08.504Z,1013.74
2019-01-20T10:54:08.422Z,1013.79
2019-01-20T10:55:08.408Z,1013.74
2019-01-20T10:56:08.400Z,1013.74
2019-01-20T10:57:08.381Z,1013.75
2019-01-20T10:58:08.380Z,1013.79
2019-01-20T10:59:08.390Z,1013.73
2019-01-20T11:00:15.530Z,1013.77
2019-01-20T11:01:50.517Z,1013.79
2019-01-20T11:02:50.491Z,1013.75
2019-01-20T11:03:50.483Z,1013.79
2019-01-20T11:04:50.472Z,1013.80
2019-01-20T11:05:51.461Z,1013.79
2019-01-20T11:06:50.453Z,1013.74
2019-01-20T11:07:50.438Z,1013.78
2019-01-20T11:08:50.428Z,1013.77
2019-01-20T11:09:50.414Z,1013.71
2019-01-20T11:10:50.402Z,1013.73
2019-01-20T11:11:50.392Z,1013.73
2019-01-20T11:12:50.388Z,1013.71
2019-01-20T11:13:50.380Z,1013.74
2019-01-20T11:14:50.371Z,1013.72
2019-01-20T11:15:50.352Z,1013.71
2019-01-20T11:16:50.345Z,1013.74
2019-01-20T11:17:50.331Z,1013.72
2019-01-20T11:18:50.910Z,1013.78
2019-01-20T11:19:50.311Z,1013.78
2019-01-20T11:20:50.300Z,1013.74
2019-01-20T11:21:50.301Z,1013.72
2019-01-20T11:22:50.274Z,1013.76
2019-01-20T11:23:50.285Z,1013.73
2019-01-20T11:24:50.253Z,1013.72
2019-01-20T11:25:50.239Z,1013.74
2019-01-20T11:26:50.232Z,1013.70
2019-01-20T11:27:50.237Z,1013.76
2019-01-20T11:28:50.213Z,1013.81
2019-01-20T11:29:50.197Z,1013.77
2019-01-20T11:30:50.189Z,1013.76
2019-01-20T11:31:50.181Z,1013.76
2019-01-20T11:32:50.177Z,1013.80
2019-01-20T11:33:50.161Z,1013.76
2019-01-20T11:34:50.170Z,1013.74
2019-01-20T11:35:50.139Z,1013.77
2019-01-20T11:36:50.127Z,1013.81
2019-01-20T11:37:50.115Z,1013.81
2019-01-20T11:38:50.101Z,1013.79
2019-01-20T11:39:50.088Z,1013.82
2019-01-20T11:40:50.082Z,1013.80
2019-01-20T11:41:50.070Z,1013.74
2019-01-20T11:42:50.072Z,1013.76
2019-01-20T11:43:50.061Z,1013.74
2019-01-20T11:44:50.037Z,1013.73
2019-01-20T11:45:50.029Z,1013.72
2019-01-20T11:46:50.019Z,1013.83
2019-01-20T11:47:50.013Z,1013.83
2019-01-20T11:48:49.989Z,1013.75
2019-01-20T11:49:49.978Z,1013.81
2019-01-20T11:50:49.975Z,1013.80
2019-01-20T11:51:49.965Z,1013.81
2019-01-20T11:52:49.981Z,1013.82
2019-01-20T11:53:49.936Z,1013.85
2019-01-20T11:54:49.938Z,1013.80
2019-01-20T11:55:49.925Z,1013.82
2019-01-20T11:56:49.924Z,1013.83
2019-01-20T11:57:49.893Z,1013.81
2019-01-20T11:58:49.882Z,1013.80
2019-01-20T11:59:49.894Z,1013.78
2019-01-20T12:00:49.874Z,1013.82
2019-01-20T12:01:50.893Z,1013.80
2019-01-20T12:02:49.861Z,1013.79
2019-01-20T12:03:49.838Z,1013.82
2019-01-20T12:04:49.819Z,1013.83
2019-01-20T12:05:50.411Z,1013.81
2019-01-20T12:06:49.814Z,1013.88
2019-01-20T12:07:49.801Z,1013.84
2019-01-20T12:08:49.787Z,1013.76
2019-01-20T12:09:49.800Z,1013.83
2019-01-20T12:10:49.753Z,1013.79
2019-01-20T12:11:49.764Z,1013.73
2019-01-20T12:12:49.733Z,1013.75
2019-01-20T12:13:49.730Z,1013.78
2019-01-20T12:14:49.721Z,1013.72
2019-01-20T12:15:49.702Z,1013.80
2019-01-20T12:16:49.698Z,1013.73
2019-01-20T12:17:49.683Z,1013.76
2019-01-20T12:18:50.512Z,1013.78
2019-01-20T12:19:49.657Z,1013.74
2019-01-20T12:20:49.657Z,1013.75
2019-01-20T12:21:49.639Z,1013.77
2019-01-20T12:22:49.644Z,1013.72
2019-01-20T12:23:49.616Z,1013.75
2019-01-20T12:24:49.612Z,1013.73
2019-01-20T12:25:49.598Z,1013.75
2019-01-20T12:26:49.599Z,1013.70
2019-01-20T12:27:49.574Z,1013.70
2019-01-20T12:28:49.607Z,1013.67
2019-01-20T12:29:51.966Z,1013.69
2019-01-20T12:30:49.551Z,1013.70
2019-01-20T12:31:49.540Z,1013.67
2019-01-20T12:32:49.527Z,1013.68
2019-01-20T12:33:49.505Z,1013.69
2019-01-20T12:34:49.505Z,1013.68
2019-01-20T12:35:49.489Z,1013.67
2019-01-20T12:36:49.480Z,1013.68
2019-01-20T12:37:49.478Z,1013.66
2019-01-20T12:38:49.463Z,1013.70
2019-01-20T12:39:49.451Z,1013.64
2019-01-20T12:40:49.432Z,1013.68
2019-01-20T12:41:49.433Z,1013.66
2019-01-20T12:42:49.424Z,1013.73
2019-01-20T12:43:49.407Z,1013.73
2019-01-20T12:44:49.396Z,1013.70
2019-01-20T12:45:49.380Z,1013.65
2019-01-20T12:46:49.401Z,1013.68
2019-01-20T12:47:49.352Z,1013.70
2019-01-20T12:48:49.358Z,1013.75
2019-01-20T12:49:49.352Z,1013.67
2019-01-20T12:50:49.330Z,1013.67
2019-01-20T12:51:49.317Z,1013.66
2019-01-20T12:52:49.321Z,1013.69
2019-01-20T12:53:49.321Z,1013.67
2019-01-20T12:54:49.297Z,1013.63
2019-01-20T12:55:49.334Z,1013.68
2019-01-20T12:56:49.265Z,1013.69
2019-01-20T12:57:49.248Z,1013.71
2019-01-20T12:58:49.245Z,1013.59
2019-01-20T12:59:49.236Z,1013.67
2019-01-20T13:00:49.217Z,1013.67
2019-01-20T13:01:49.209Z,1013.59
2019-01-20T13:02:49.200Z,1013.68
2019-01-20T13:03:49.184Z,1013.69
2019-01-20T13:04:49.223Z,1013.69
2019-01-20T13:05:49.165Z,1013.66
2019-01-20T13:06:49.164Z,1013.67
2019-01-20T13:07:49.156Z,1013.70
2019-01-20T13:08:49.131Z,1013.71
2019-01-20T13:09:49.128Z,1013.66
2019-01-20T13:10:49.119Z,1013.61
2019-01-20T13:11:49.101Z,1013.65
2019-01-20T13:12:49.091Z,1013.67
2019-01-20T13:13:49.094Z,1013.57
2019-01-20T13:14:49.123Z,1013.60
2019-01-20T13:15:49.056Z,1013.66
2019-01-20T13:16:49.044Z,1013.75
2019-01-20T13:17:49.076Z,1013.73
2019-01-20T13:18:49.022Z,1013.65
2019-01-20T13:19:49.010Z,1013.73
2019-01-20T13:20:49.018Z,1013.72
2019-01-20T13:21:48.997Z,1013.72
2019-01-20T13:22:48.986Z,1013.74
2019-01-20T13:23:48.982Z,1013.74
2019-01-20T13:24:48.963Z,1013.81
2019-01-20T13:25:48.952Z,1013.73
2019-01-20T13:26:48.938Z,1013.75
2019-01-20T13:27:48.944Z,1013.76
2019-01-20T13:28:48.916Z,1013.74
2019-01-20T13:29:48.912Z,1013.73
2019-01-20T13:30:48.906Z,1013.79
2019-01-20T13:31:48.892Z,1013.78
2019-01-20T13:32:48.872Z,1013.80
2019-01-20T13:33:48.865Z,1013.87
2019-01-20T13:34:48.859Z,1013.78
2019-01-20T13:35:48.843Z,1013.78
2019-01-20T13:36:48.842Z,1013.80
2019-01-20T13:37:48.825Z,1013.83
2019-01-20T13:38:48.815Z,1013.85
2019-01-20T13:39:48.803Z,1013.76
2019-01-20T13:40:48.792Z,1013.80
2019-01-20T13:41:48.790Z,1013.80
2019-01-20T13:42:48.773Z,1013.83
2019-01-20T13:43:48.760Z,1013.82
2019-01-20T13:44:48.748Z,1013.87
2019-01-20T13:45:48.737Z,1013.86
2019-01-20T13:46:48.728Z,1013.78
2019-01-20T13:47:49.066Z,1013.91
2019-01-20T13:48:48.711Z,1013.86
2019-01-20T13:49:48.697Z,1013.81
2019-01-20T13:50:48.681Z,1013.87
2019-01-20T13:51:48.684Z,1013.91
2019-01-20T13:52:48.665Z,1013.86
2019-01-20T13:53:48.654Z,1013.85
2019-01-20T13:54:48.651Z,1013.84
2019-01-20T13:55:48.630Z,1013.93
2019-01-20T13:56:48.618Z,1013.88
2019-01-20T13:57:48.607Z,1013.83
2019-01-20T13:58:48.597Z,1013.91
2019-01-20T13:59:48.584Z,1013.88
2019-01-20T14:00:49.787Z,1013.88
2019-01-20T14:01:48.580Z,1013.83
2019-01-20T14:02:48.565Z,1013.88
2019-01-20T14:03:48.552Z,1013.85
2019-01-20T14:04:48.531Z,1013.91
2019-01-20T14:05:48.527Z,1013.87
2019-01-20T14:06:48.536Z,1013.86
2019-01-20T14:07:48.502Z,1013.98
2019-01-20T14:08:48.491Z,1013.93
2019-01-20T14:09:48.476Z,1013.96
2019-01-20T14:10:48.470Z,1013.95
2019-01-20T14:11:48.458Z,1013.97
2019-01-20T14:12:48.449Z,1013.96
2019-01-20T14:13:48.435Z,1013.99
2019-01-20T14:14:53.846Z,1013.98
2019-01-20T14:15:49.422Z,1013.99
2019-01-20T14:16:48.402Z,1014.02
2019-01-20T14:17:48.394Z,1013.97
2019-01-20T14:18:48.383Z,1014.04
2019-01-20T14:19:48.373Z,1014.00
2019-01-20T14:20:48.360Z,1014.00
2019-01-20T14:21:48.345Z,1014.07
2019-01-20T14:22:48.347Z,1014.01
2019-01-20T14:23:48.327Z,1014.02
2019-01-20T14:24:48.317Z,1014.02
2019-01-20T14:25:48.303Z,1014.05
2019-01-20T14:26:48.291Z,1014.02
2019-01-20T14:27:48.282Z,1014.05
2019-01-20T14:28:48.285Z,1014.05
2019-01-20T14:29:48.261Z,1014.09
2019-01-20T14:30:48.250Z,1014.14
2019-01-20T14:31:48.242Z,1014.10
2019-01-20T14:32:48.238Z,1014.16
2019-01-20T14:33:48.221Z,1014.10
2019-01-20T14:34:48.203Z,1014.18
2019-01-20T14:35:48.199Z,1014.22
2019-01-20T14:36:48.183Z,1014.30
2019-01-20T14:37:48.175Z,1014.25
2019-01-20T14:38:48.163Z,1014.24
2019-01-20T14:39:48.160Z,1014.25
2019-01-20T14:40:48.143Z,1014.35
2019-01-20T14:41:48.133Z,1014.22
2019-01-20T14:42:48.123Z,1014.22
2019-01-20T14:43:48.929Z,1014.23
2019-01-20T14:44:48.097Z,1014.29
2019-01-20T14:45:48.085Z,1014.27
2019-01-20T14:46:48.076Z,1014.27
2019-01-20T14:47:48.073Z,1014.25
2019-01-20T14:48:48.060Z,1014.31
2019-01-20T14:49:48.040Z,1014.31
2019-01-20T14:50:48.036Z,1014.30
2019-01-20T14:51:48.034Z,1014.21
2019-01-20T14:52:48.016Z,1014.33
2019-01-20T14:53:48.003Z,1014.31
2019-01-20T14:54:47.992Z,1014.30
2019-01-20T14:55:47.987Z,1014.33
2019-01-20T14:56:47.971Z,1014.38
2019-01-20T14:57:47.960Z,1014.33
2019-01-20T14:58:47.946Z,1014.30
2019-01-20T14:59:47.934Z,1014.35
2019-01-20T15:00:47.926Z,1014.27
2019-01-20T15:01:47.924Z,1014.39
2019-01-20T15:02:47.907Z,1014.33
2019-01-20T15:03:47.898Z,1014.33
2019-01-20T15:04:47.882Z,1014.33
2019-01-20T15:05:47.870Z,1014.34
2019-01-20T15:06:47.862Z,1014.33
2019-01-20T15:07:47.850Z,1014.35
2019-01-20T15:08:47.841Z,1014.36
2019-01-20T15:09:47.836Z,1014.32
2019-01-20T15:10:47.822Z,1014.35
2019-01-20T15:11:47.807Z,1014.37
2019-01-20T15:12:47.847Z,1014.39
2019-01-20T15:13:47.798Z,1014.39
2019-01-20T15:14:47.780Z,1014.41
2019-01-20T15:15:47.765Z,1014.36
2019-01-20T15:16:47.761Z,1014.34
2019-01-20T15:17:47.748Z,1014.38
2019-01-20T15:18:47.744Z,1014.29
2019-01-20T15:19:47.727Z,1014.27
2019-01-20T15:20:47.720Z,1014.29
2019-01-20T15:21:47.705Z,1014.33
2019-01-20T15:22:47.686Z,1014.40
2019-01-20T15:23:47.678Z,1014.36
2019-01-20T15:24:47.669Z,1014.35
2019-01-20T15:25:47.665Z,1014.38
2019-01-20T15:26:47.646Z,1014.37
2019-01-20T15:27:47.688Z,1014.41
2019-01-20T15:28:47.626Z,1014.39
2019-01-20T15:29:47.614Z,1014.42
2019-01-20T15:30:47.603Z,1014.44
2019-01-20T15:31:47.592Z,1014.33
2019-01-20T15:32:47.587Z,1014.42
2019-01-20T15:33:47.588Z,1014.43
2019-01-20T15:34:47.562Z,1014.46
2019-01-20T15:35:47.551Z,1014.47
2019-01-20T15:36:47.541Z,1014.47
2019-01-20T15:37:47.525Z,1014.49
2019-01-20T15:38:47.524Z,1014.53
2019-01-20T15:39:47.506Z,1014.57
2019-01-20T15:40:47.509Z,1014.51
2019-01-20T15:41:47.491Z,1014.54
2019-01-20T15:42:47.483Z,1014.58
2019-01-20T15:43:47.476Z,1014.69
2019-01-20T15:44:47.465Z,1014.61
2019-01-20T15:45:47.445Z,1014.60
2019-01-20T15:46:47.442Z,1014.60
2019-01-20T15:47:47.484Z,1014.67
2019-01-20T15:48:47.409Z,1014.64
2019-01-20T15:49:47.443Z,1014.62
2019-01-20T15:50:47.397Z,1014.62
2019-01-20T15:51:47.394Z,1014.55
2019-01-20T15:52:47.371Z,1014.61
2019-01-20T15:53:47.354Z,1014.64
2019-01-20T15:54:47.348Z,1014.63
2019-01-20T15:55:47.348Z,1014.65
2019-01-20T15:56:47.332Z,1014.71
2019-01-20T15:57:47.343Z,1014.66
2019-01-20T15:58:47.311Z,1014.64
2019-01-20T15:59:47.302Z,1014.66
2019-01-20T16:00:47.281Z,1014.71
2019-01-20T16:01:47.274Z,1014.74
2019-01-20T16:02:47.263Z,1014.67
2019-01-20T16:03:47.243Z,1014.62
2019-01-20T16:04:47.236Z,1014.63
2019-01-20T16:05:47.228Z,1014.67
2019-01-20T16:06:47.220Z,1014.68
2019-01-20T16:07:47.219Z,1014.74
2019-01-20T16:08:47.194Z,1014.66
2019-01-20T16:09:47.192Z,1014.72
2019-01-20T16:10:47.175Z,1014.70
2019-01-20T16:11:47.168Z,1014.73
2019-01-20T16:12:47.156Z,1014.72
2019-01-20T16:13:47.149Z,1014.72
2019-01-20T16:14:47.131Z,1014.77
2019-01-20T16:15:47.119Z,1014.72
2019-01-20T16:16:47.108Z,1014.80
2019-01-20T16:17:47.099Z,1014.75
2019-01-20T16:18:47.103Z,1014.83
2019-01-20T16:19:47.087Z,1014.85
2019-01-20T16:20:47.075Z,1014.80
2019-01-20T16:21:47.053Z,1014.84
2019-01-20T16:22:47.088Z,1014.85
2019-01-20T16:23:47.033Z,1014.84
2019-01-20T16:24:47.033Z,1014.91
2019-01-20T16:25:47.016Z,1014.81
2019-01-20T16:26:47.000Z,1014.90
2019-01-20T16:27:46.991Z,1014.81
2019-01-20T16:28:46.983Z,1014.90
2019-01-20T16:29:46.970Z,1014.88
2019-01-20T16:30:46.965Z,1014.82
2019-01-20T16:31:46.948Z,1014.79
2019-01-20T16:32:46.946Z,1014.83
2019-01-20T16:33:46.924Z,1014.81
2019-01-20T16:34:46.942Z,1014.89
2019-01-20T16:35:46.916Z,1014.90
2019-01-20T16:36:46.888Z,1014.88
2019-01-20T16:37:47.268Z,1014.82
2019-01-20T16:38:46.887Z,1014.85
2019-01-20T16:39:46.867Z,1014.87
2019-01-20T16:40:46.859Z,1014.93
2019-01-20T16:41:46.850Z,1014.90
2019-01-20T16:42:46.830Z,1014.91
2019-01-20T16:43:46.819Z,1014.89
2019-01-20T16:44:46.808Z,1014.88
2019-01-20T16:45:46.801Z,1014.90
2019-01-20T16:46:46.784Z,1014.94
2019-01-20T16:47:46.791Z,1014.85
2019-01-20T16:48:46.767Z,1014.83
2019-01-20T16:49:46.755Z,1014.86
2019-01-20T16:50:46.742Z,1014.92
2019-01-20T16:51:46.742Z,1014.94
2019-01-20T16:52:46.721Z,1014.92
2019-01-20T16:53:46.783Z,1014.85
2019-01-20T16:54:46.696Z,1014.96
2019-01-20T16:55:46.689Z,1014.91
2019-01-20T16:56:46.684Z,1014.92
2019-01-20T16:57:46.673Z,1014.97
2019-01-20T16:58:51.307Z,1014.99
2019-01-20T16:59:46.662Z,1015.05
2019-01-20T17:00:46.637Z,1015.00
2019-01-20T17:01:56.221Z,1015.02
2019-01-20T17:03:28.819Z,1015.06
2019-01-20T17:04:29.241Z,1015.09
2019-01-20T17:05:28.842Z,1015.11
2019-01-20T17:06:28.798Z,1015.11
2019-01-20T17:07:28.809Z,1015.10
2019-01-20T17:08:28.783Z,1015.05
2019-01-20T17:09:28.730Z,1015.04
2019-01-20T17:10:28.814Z,1015.02
2019-01-20T17:11:28.830Z,1015.08
2019-01-20T17:12:28.707Z,1015.09
2019-01-20T17:13:28.735Z,1015.09
2019-01-20T17:14:28.686Z,1015.12
2019-01-20T17:15:28.764Z,1015.12
2019-01-20T17:16:28.675Z,1015.16
2019-01-20T17:17:28.763Z,1015.19
2019-01-20T17:18:28.684Z,1015.13
2019-01-20T17:19:28.638Z,1015.13
2019-01-20T17:20:28.694Z,1015.20
2019-01-20T17:21:28.642Z,1015.14
2019-01-20T17:22:28.646Z,1015.17
2019-01-20T17:23:28.612Z,1015.18
2019-01-20T17:24:28.622Z,1015.18
2019-01-20T17:25:28.595Z,1015.15
2019-01-20T17:26:28.580Z,1015.19
2019-01-20T17:27:28.561Z,1015.19
2019-01-20T17:28:28.541Z,1015.19
2019-01-20T17:29:28.544Z,1015.21
2019-01-20T17:30:29.228Z,1015.21
2019-01-20T17:31:28.510Z,1015.26
2019-01-20T17:32:28.495Z,1015.20
2019-01-20T17:33:28.480Z,1015.19
2019-01-20T17:34:28.472Z,1015.28
2019-01-20T17:35:28.466Z,1015.28
2019-01-20T17:36:28.478Z,1015.21
2019-01-20T17:37:28.461Z,1015.26
2019-01-20T17:38:28.422Z,1015.24
2019-01-20T17:39:28.414Z,1015.24
2019-01-20T17:40:28.415Z,1015.19
2019-01-20T17:41:28.386Z,1015.20
2019-01-20T17:42:28.385Z,1015.17
2019-01-20T17:43:28.388Z,1015.23
2019-01-20T17:44:28.361Z,1015.23
2019-01-20T17:45:29.174Z,1015.24
2019-01-20T17:46:28.357Z,1015.27
2019-01-20T17:47:28.330Z,1015.26
2019-01-20T17:48:28.326Z,1015.36
2019-01-20T17:49:28.351Z,1015.35
2019-01-20T17:50:28.331Z,1015.40
2019-01-20T17:51:28.291Z,1015.36
2019-01-20T17:52:28.332Z,1015.41
2019-01-20T17:53:28.298Z,1015.43
2019-01-20T17:54:28.258Z,1015.44
2019-01-20T17:55:28.237Z,1015.46
2019-01-20T17:56:28.284Z,1015.46
2019-01-20T17:57:28.228Z,1015.40
2019-01-20T17:58:28.219Z,1015.46
2019-01-20T17:59:28.212Z,1015.44
2019-01-20T18:00:28.218Z,1015.46
2019-01-20T18:01:28.172Z,1015.45
2019-01-20T18:02:28.205Z,1015.47
2019-01-20T18:03:28.163Z,1015.38
2019-01-20T18:04:28.146Z,1015.51
2019-01-20T18:05:28.185Z,1015.49
2019-01-20T18:06:28.130Z,1015.50
2019-01-20T18:07:28.153Z,1015.48
2019-01-20T18:08:28.123Z,1015.59
2019-01-20T18:09:28.094Z,1015.52
2019-01-20T18:10:28.073Z,1015.55
2019-01-20T18:11:28.112Z,1015.60
2019-01-20T18:12:28.086Z,1015.58
2019-01-20T18:13:28.047Z,1015.59
2019-01-20T18:14:28.108Z,1015.55
2019-01-20T18:15:28.050Z,1015.50
2019-01-20T18:16:28.085Z,1015.62
2019-01-20T18:17:28.008Z,1015.60
2019-01-20T18:18:28.012Z,1015.61
2019-01-20T18:19:27.983Z,1015.62
2019-01-20T18:20:27.958Z,1015.64
2019-01-20T18:21:27.956Z,1015.67
2019-01-20T18:22:27.958Z,1015.62
2019-01-20T18:23:27.990Z,1015.68
2019-01-20T18:24:27.923Z,1015.69
2019-01-20T18:25:27.913Z,1015.65
2019-01-20T18:26:27.925Z,1015.68
2019-01-20T18:27:27.932Z,1015.68
2019-01-20T18:28:27.883Z,1015.74
2019-01-20T18:29:27.902Z,1015.73
2019-01-20T18:30:27.909Z,1015.71
2019-01-20T18:31:27.877Z,1015.72
2019-01-20T18:32:27.837Z,1015.77
2019-01-20T18:33:27.912Z,1015.74
2019-01-20T18:34:27.813Z,1015.73
2019-01-20T18:35:27.841Z,1015.68
2019-01-20T18:36:27.823Z,1015.68
2019-01-20T18:37:27.776Z,1015.74
2019-01-20T18:38:27.778Z,1015.74
2019-01-20T18:39:27.776Z,1015.74
2019-01-20T18:40:27.800Z,1015.79
2019-01-20T18:41:27.761Z,1015.74
2019-01-20T18:42:27.729Z,1015.80
2019-01-20T18:43:27.760Z,1015.77
2019-01-20T18:44:27.725Z,1015.79
2019-01-20T18:45:27.689Z,1015.77
2019-01-20T18:46:27.710Z,1015.75
2019-01-20T18:47:27.673Z,1015.78
2019-01-20T18:48:27.680Z,1015.80
2019-01-20T18:49:27.702Z,1015.86
2019-01-20T18:50:27.638Z,1015.85
2019-01-20T18:51:27.692Z,1015.82
2019-01-20T18:52:27.633Z,1015.80
2019-01-20T18:53:27.599Z,1015.88
2019-01-20T18:54:27.602Z,1015.91
2019-01-20T18:55:27.563Z,1015.85
2019-01-20T18:56:27.560Z,1015.90
2019-01-20T18:57:27.581Z,1015.90
2019-01-20T18:58:27.562Z,1015.95
2019-01-20T18:59:27.624Z,1015.94
2019-01-20T19:00:27.532Z,1015.93
2019-01-20T19:01:27.513Z,1015.97
2019-01-20T19:02:27.503Z,1015.99
2019-01-20T19:03:27.493Z,1015.95
2019-01-20T19:04:27.478Z,1015.94
2019-01-20T19:05:27.527Z,1016.01
2019-01-20T19:06:27.446Z,1016.01
2019-01-20T19:07:27.464Z,1016.06
2019-01-20T19:08:27.435Z,1016.02
2019-01-20T19:09:27.429Z,1016.13
2019-01-20T19:10:28.187Z,1016.09
2019-01-20T19:11:27.436Z,1016.10
2019-01-20T19:12:27.418Z,1016.12
2019-01-20T19:13:27.380Z,1016.06
2019-01-20T19:14:27.369Z,1016.01
2019-01-20T19:15:27.368Z,1016.13
2019-01-20T19:16:27.395Z,1016.12
2019-01-20T19:17:27.340Z,1016.10
2019-01-20T19:18:27.339Z,1016.17
2019-01-20T19:19:27.333Z,1016.15
2019-01-20T19:20:27.308Z,1016.19
2019-01-20T19:21:27.314Z,1016.22
2019-01-20T19:22:27.299Z,1016.22
2019-01-20T19:23:28.261Z,1016.24
2019-01-20T19:24:27.257Z,1016.25
2019-01-20T19:25:27.262Z,1016.29
2019-01-20T19:26:27.291Z,1016.22
2019-01-20T19:27:27.261Z,1016.25
2019-01-20T19:28:27.236Z,1016.26
2019-01-20T19:29:27.201Z,1016.30
2019-01-20T19:30:27.202Z,1016.30
2019-01-20T19:31:27.192Z,1016.34
2019-01-20T19:32:27.184Z,1016.34
2019-01-20T19:33:27.228Z,1016.33
2019-01-20T19:34:27.240Z,1016.33
2019-01-20T19:35:28.307Z,1016.35
2019-01-20T19:36:27.126Z,1016.39
2019-01-20T19:37:27.117Z,1016.33
2019-01-20T19:38:27.114Z,1016.39
2019-01-20T19:39:27.102Z,1016.38
2019-01-20T19:40:27.089Z,1016.41
2019-01-20T19:41:27.089Z,1016.49
2019-01-20T19:42:27.079Z,1016.47
2019-01-20T19:43:27.058Z,1016.38
2019-01-20T19:44:27.095Z,1016.49
2019-01-20T19:45:27.081Z,1016.47
2019-01-20T19:46:27.036Z,1016.54
2019-01-20T19:47:27.024Z,1016.47
2019-01-20T19:48:27.007Z,1016.45
2019-01-20T19:49:26.995Z,1016.47
2019-01-20T19:50:27.009Z,1016.51
2019-01-20T19:51:27.022Z,1016.52
2019-01-20T19:52:27.055Z,1016.52
2019-01-20T19:53:27.003Z,1016.51
2019-01-20T19:54:26.989Z,1016.52
2019-01-20T19:55:26.959Z,1016.51
2019-01-20T19:56:26.938Z,1016.56
2019-01-20T19:57:26.967Z,1016.57
2019-01-20T19:58:26.912Z,1016.57
2019-01-20T19:59:26.955Z,1016.55
2019-01-20T20:00:26.960Z,1016.65
2019-01-20T20:01:30.903Z,1016.62
2019-01-20T20:02:26.933Z,1016.55
2019-01-20T20:03:26.842Z,1016.58
2019-01-20T20:04:26.884Z,1016.61
2019-01-20T20:05:26.812Z,1016.69
2019-01-20T20:06:26.881Z,1016.59
2019-01-20T20:07:26.807Z,1016.67
2019-01-20T20:08:26.913Z,1016.65
2019-01-20T20:09:26.822Z,1016.59
2019-01-20T20:10:26.777Z,1016.60
2019-01-20T20:11:26.762Z,1016.68
2019-01-20T20:12:26.757Z,1016.70
2019-01-20T20:13:26.754Z,1016.69
2019-01-20T20:14:26.758Z,1016.67
2019-01-20T20:15:26.696Z,1016.71
2019-01-20T20:16:26.701Z,1016.64
2019-01-20T20:17:26.792Z,1016.70
2019-01-20T20:18:26.682Z,1016.65
2019-01-20T20:19:26.679Z,1016.65
2019-01-20T20:20:26.658Z,1016.73
2019-01-20T20:21:26.681Z,1016.70
2019-01-20T20:22:26.639Z,1016.71
2019-01-20T20:23:26.721Z,1016.72
2019-01-20T20:24:26.623Z,1016.77
2019-01-20T20:25:26.596Z,1016.78
2019-01-20T20:26:26.593Z,1016.80
2019-01-20T20:27:26.576Z,1016.76
2019-01-20T20:28:26.560Z,1016.81
2019-01-20T20:29:26.590Z,1016.78
2019-01-20T20:30:26.599Z,1016.79
2019-01-20T20:31:26.526Z,1016.81
2019-01-20T20:32:26.525Z,1016.81
2019-01-20T20:33:26.512Z,1016.81
2019-01-20T20:34:26.502Z,1016.89
2019-01-20T20:35:26.493Z,1016.84
2019-01-20T20:36:26.508Z,1016.85
2019-01-20T20:37:26.482Z,1016.88
2019-01-20T20:38:26.458Z,1016.92
2019-01-20T20:39:26.438Z,1016.88
2019-01-20T20:40:26.439Z,1016.90
2019-01-20T20:41:26.438Z,1016.90
2019-01-20T20:42:26.405Z,1017.01
2019-01-20T20:43:26.405Z,1016.98
2019-01-20T20:44:26.398Z,1016.98
2019-01-20T20:45:26.376Z,1016.93
2019-01-20T20:46:30.492Z,1017.01
2019-01-20T20:47:26.365Z,1017.07
2019-01-20T20:48:26.386Z,1017.03
2019-01-20T20:49:26.330Z,1016.99
2019-01-20T20:50:26.320Z,1017.02
2019-01-20T20:51:26.368Z,1016.99
2019-01-20T20:52:26.320Z,1017.05
2019-01-20T20:53:26.319Z,1017.06
2019-01-20T20:54:26.273Z,1017.03
2019-01-20T20:55:26.263Z,1016.97
2019-01-20T20:56:26.269Z,1017.09
2019-01-20T20:57:26.240Z,1017.04
2019-01-20T20:58:26.273Z,1017.05
2019-01-20T20:59:26.244Z,1017.06
2019-01-20T21:00:26.209Z,1017.01
2019-01-20T21:01:26.210Z,1017.03
2019-01-20T21:02:26.847Z,1017.02
2019-01-20T21:03:26.204Z,1017.03
2019-01-20T21:04:26.182Z,1017.04
2019-01-20T21:05:26.182Z,1017.05
2019-01-20T21:06:26.148Z,1017.09
2019-01-20T21:07:26.225Z,1017.01
2019-01-20T21:08:26.120Z,1017.02
2019-01-20T21:09:26.115Z,1017.04
2019-01-20T21:10:26.091Z,1017.06
2019-01-20T21:11:26.092Z,1017.08
2019-01-20T21:12:26.066Z,1017.04
2019-01-20T21:13:26.062Z,1017.09
2019-01-20T21:14:26.959Z,1017.06
2019-01-20T21:15:26.051Z,1017.12
2019-01-20T21:16:26.034Z,1017.12
2019-01-20T21:17:26.017Z,1017.07
2019-01-20T21:18:26.027Z,1017.11
2019-01-20T21:19:25.999Z,1017.08
2019-01-20T21:20:25.997Z,1017.11
2019-01-20T21:21:26.726Z,1017.08
2019-01-20T21:22:25.965Z,1017.11
2019-01-20T21:23:26.035Z,1017.09
2019-01-20T21:24:25.958Z,1017.18
2019-01-20T21:25:26.366Z,1017.08
2019-01-20T21:26:25.946Z,1017.07
2019-01-20T21:27:25.945Z,1017.14
2019-01-20T21:28:25.910Z,1017.11
2019-01-20T21:29:25.890Z,1017.20
2019-01-20T21:30:25.881Z,1017.18
2019-01-20T21:31:25.870Z,1017.15
2019-01-20T21:32:25.856Z,1017.18
2019-01-20T21:33:25.840Z,1017.17
2019-01-20T21:34:25.844Z,1017.20
2019-01-20T21:35:25.858Z,1017.20
2019-01-20T21:36:26.016Z,1017.17
2019-01-20T21:37:25.828Z,1017.23
2019-01-20T21:38:25.949Z,1017.27
2019-01-20T21:39:25.880Z,1017.19
2019-01-20T21:40:25.824Z,1017.24
2019-01-20T21:41:25.928Z,1017.26
2019-01-20T21:42:25.768Z,1017.24
2019-01-20T21:43:25.763Z,1017.23
2019-01-20T21:44:25.777Z,1017.29
2019-01-20T21:45:25.709Z,1017.31
2019-01-20T21:46:25.702Z,1017.24
2019-01-20T21:47:25.706Z,1017.33
2019-01-20T21:48:25.703Z,1017.24
2019-01-20T21:49:25.739Z,1017.37
2019-01-20T21:50:25.686Z,1017.33
2019-01-20T21:51:25.652Z,1017.34
2019-01-20T21:52:25.654Z,1017.35
2019-01-20T21:53:25.621Z,1017.36
2019-01-20T21:54:25.615Z,1017.37
2019-01-20T21:55:25.614Z,1017.36
2019-01-20T21:56:25.595Z,1017.35
2019-01-20T21:57:25.585Z,1017.32
2019-01-20T21:58:25.638Z,1017.33
2019-01-20T21:59:25.570Z,1017.34
2019-01-20T22:00:25.555Z,1017.38
2019-01-20T22:01:25.563Z,1017.37
2019-01-20T22:02:25.572Z,1017.38
2019-01-20T22:03:25.582Z,1017.36
2019-01-20T22:04:25.591Z,1017.42
2019-01-20T22:05:25.502Z,1017.45
2019-01-20T22:06:25.488Z,1017.45
2019-01-20T22:07:25.468Z,1017.46
2019-01-20T22:08:25.444Z,1017.47
2019-01-20T22:09:25.456Z,1017.46
2019-01-20T22:10:25.429Z,1017.46
2019-01-20T22:11:25.424Z,1017.43
2019-01-20T22:12:25.437Z,1017.45